sensor_id;sensor_type;location;lat;lon;timestamp;P1;durP1;ratioP1;P2;durP2;ratioP2
2610;SDS011;5612;51.134;17.058;2023-07-08T00:01:10;10.50;;;8.70;;
2610;SDS011;5612;51.134;17.058;2023-07-08T00:03:42;11.03;;;9.60;;
2610;SDS011;5612;51.134;17.058;2023-07-08T00:06:11;10.33;;;9.33;;
2610;SDS011;5612;51.134;17.058;2023-07-08T00:08:44;11.47;;;10.37;;
2610;SDS011;5612;51.134;17.058;2023-07-08T00:11:13;10.47;;;9.60;;
2610;SDS011;5612;51.134;17.058;2023-07-08T00:13:43;10.67;;;9.57;;
2610;SDS011;5612;51.134;17.058;2023-07-08T00:16:13;10.27;;;9.27;;
2610;SDS011;5612;51.134;17.058;2023-07-08T00:18:45;9.97;;;9.07;;
2610;SDS011;5612;51.134;17.058;2023-07-08T00:21:15;9.87;;;8.97;;
2610;SDS011;5612;51.134;17.058;2023-07-08T00:23:45;11.23;;;10.33;;
2610;SDS011;5612;51.134;17.058;2023-07-08T00:26:16;9.83;;;8.90;;
2610;SDS011;5612;51.134;17.058;2023-07-08T00:28:51;9.83;;;9.13;;
2610;SDS011;5612;51.134;17.058;2023-07-08T00:31:20;10.00;;;9.17;;
2610;SDS011;5612;51.134;17.058;2023-07-08T00:33:54;10.77;;;9.87;;
2610;SDS011;5612;51.134;17.058;2023-07-08T00:36:24;10.60;;;9.50;;
2610;SDS011;5612;51.134;17.058;2023-07-08T00:38:55;10.20;;;9.20;;
2610;SDS011;5612;51.134;17.058;2023-07-08T00:41:25;10.43;;;9.53;;
2610;SDS011;5612;51.134;17.058;2023-07-08T00:43:59;9.97;;;9.20;;
2610;SDS011;5612;51.134;17.058;2023-07-08T00:46:31;10.70;;;9.80;;
2610;SDS011;5612;51.134;17.058;2023-07-08T00:49:13;11.00;;;10.10;;
2610;SDS011;5612;51.134;17.058;2023-07-08T00:54:44;10.80;;;9.30;;
2610;SDS011;5612;51.134;17.058;2023-07-08T00:57:13;10.53;;;9.73;;
2610;SDS011;5612;51.134;17.058;2023-07-08T00:59:43;10.30;;;9.30;;
2610;SDS011;5612;51.134;17.058;2023-07-08T01:02:15;10.80;;;9.93;;
2610;SDS011;5612;51.134;17.058;2023-07-08T01:04:50;11.07;;;9.93;;
2610;SDS011;5612;51.134;17.058;2023-07-08T01:07:23;9.60;;;8.80;;
2610;SDS011;5612;51.134;17.058;2023-07-08T01:09:54;11.27;;;10.33;;
2610;SDS011;5612;51.134;17.058;2023-07-08T01:12:30;11.10;;;10.03;;
2610;SDS011;5612;51.134;17.058;2023-07-08T01:15:05;9.80;;;9.10;;
2610;SDS011;5612;51.134;17.058;2023-07-08T01:17:36;11.90;;;11.00;;
2610;SDS011;5612;51.134;17.058;2023-07-08T01:20:08;10.50;;;9.60;;
2610;SDS011;5612;51.134;17.058;2023-07-08T01:22:41;12.73;;;11.43;;
2610;SDS011;5612;51.134;17.058;2023-07-08T01:25:12;10.63;;;9.73;;
2610;SDS011;5612;51.134;17.058;2023-07-08T01:27:43;11.90;;;10.87;;
2610;SDS011;5612;51.134;17.058;2023-07-08T01:30:15;11.43;;;10.43;;
2610;SDS011;5612;51.134;17.058;2023-07-08T01:32:46;11.83;;;10.83;;
2610;SDS011;5612;51.134;17.058;2023-07-08T01:35:18;11.70;;;10.70;;
2610;SDS011;5612;51.134;17.058;2023-07-08T01:37:49;11.67;;;10.40;;
2610;SDS011;5612;51.134;17.058;2023-07-08T01:40:23;12.70;;;11.40;;
2610;SDS011;5612;51.134;17.058;2023-07-08T01:42:55;13.33;;;10.53;;
2610;SDS011;5612;51.134;17.058;2023-07-08T01:45:25;12.77;;;11.67;;
2610;SDS011;5612;51.134;17.058;2023-07-08T01:47:57;12.40;;;11.40;;
2610;SDS011;5612;51.134;17.058;2023-07-08T01:50:31;12.60;;;11.60;;
2610;SDS011;5612;51.134;17.058;2023-07-08T01:53:05;12.03;;;10.93;;
2610;SDS011;5612;51.134;17.058;2023-07-08T01:55:38;12.40;;;11.30;;
2610;SDS011;5612;51.134;17.058;2023-07-08T01:58:07;11.23;;;10.10;;
2610;SDS011;5612;51.134;17.058;2023-07-08T02:00:35;11.53;;;10.40;;
2610;SDS011;5612;51.134;17.058;2023-07-08T02:03:04;13.57;;;12.47;;
2610;SDS011;5612;51.134;17.058;2023-07-08T02:05:33;12.43;;;11.33;;
2610;SDS011;5612;51.134;17.058;2023-07-08T02:08:04;11.90;;;10.80;;
2610;SDS011;5612;51.134;17.058;2023-07-08T02:10:33;12.47;;;11.37;;
2610;SDS011;5612;51.134;17.058;2023-07-08T02:13:02;12.90;;;11.47;;
2610;SDS011;5612;51.134;17.058;2023-07-08T02:15:31;12.37;;;11.30;;
2610;SDS011;5612;51.134;17.058;2023-07-08T02:18:00;13.80;;;12.50;;
2610;SDS011;5612;51.134;17.058;2023-07-08T02:20:29;12.57;;;11.57;;
2610;SDS011;5612;51.134;17.058;2023-07-08T02:22:57;13.37;;;11.87;;
2610;SDS011;5612;51.134;17.058;2023-07-08T02:25:28;11.73;;;10.70;;
2610;SDS011;5612;51.134;17.058;2023-07-08T02:27:56;10.80;;;9.97;;
2610;SDS011;5612;51.134;17.058;2023-07-08T02:30:26;12.13;;;11.07;;
2610;SDS011;5612;51.134;17.058;2023-07-08T02:32:55;12.30;;;11.10;;
2610;SDS011;5612;51.134;17.058;2023-07-08T02:35:25;12.83;;;11.77;;
2610;SDS011;5612;51.134;17.058;2023-07-08T02:37:56;13.10;;;11.90;;
2610;SDS011;5612;51.134;17.058;2023-07-08T02:40:25;12.40;;;11.30;;
2610;SDS011;5612;51.134;17.058;2023-07-08T02:42:55;12.37;;;10.87;;
2610;SDS011;5612;51.134;17.058;2023-07-08T02:45:24;12.67;;;11.47;;
2610;SDS011;5612;51.134;17.058;2023-07-08T02:47:53;14.90;;;12.53;;
2610;SDS011;5612;51.134;17.058;2023-07-08T02:50:22;11.67;;;10.73;;
2610;SDS011;5612;51.134;17.058;2023-07-08T02:52:51;12.53;;;11.43;;
2610;SDS011;5612;51.134;17.058;2023-07-08T02:55:20;12.53;;;11.53;;
2610;SDS011;5612;51.134;17.058;2023-07-08T02:57:50;12.63;;;11.53;;
2610;SDS011;5612;51.134;17.058;2023-07-08T03:00:19;12.67;;;11.57;;
2610;SDS011;5612;51.134;17.058;2023-07-08T03:02:48;12.80;;;11.70;;
2610;SDS011;5612;51.134;17.058;2023-07-08T03:05:17;12.43;;;11.17;;
2610;SDS011;5612;51.134;17.058;2023-07-08T03:07:46;12.80;;;11.90;;
2610;SDS011;5612;51.134;17.058;2023-07-08T03:10:15;12.10;;;11.13;;
2610;SDS011;5612;51.134;17.058;2023-07-08T03:12:44;11.97;;;10.83;;
2610;SDS011;5612;51.134;17.058;2023-07-08T03:15:14;13.03;;;11.93;;
2610;SDS011;5612;51.134;17.058;2023-07-08T03:17:43;12.93;;;11.70;;
2610;SDS011;5612;51.134;17.058;2023-07-08T03:20:12;13.67;;;12.40;;
2610;SDS011;5612;51.134;17.058;2023-07-08T03:22:41;12.33;;;11.20;;
2610;SDS011;5612;51.134;17.058;2023-07-08T03:25:10;13.57;;;12.30;;
2610;SDS011;5612;51.134;17.058;2023-07-08T03:27:39;12.00;;;11.00;;
2610;SDS011;5612;51.134;17.058;2023-07-08T03:30:11;12.43;;;11.33;;
2610;SDS011;5612;51.134;17.058;2023-07-08T03:32:41;14.60;;;13.03;;
2610;SDS011;5612;51.134;17.058;2023-07-08T03:35:10;12.63;;;11.67;;
2610;SDS011;5612;51.134;17.058;2023-07-08T03:37:39;12.60;;;11.60;;
2610;SDS011;5612;51.134;17.058;2023-07-08T03:40:08;13.80;;;12.50;;
2610;SDS011;5612;51.134;17.058;2023-07-08T03:42:38;12.50;;;11.60;;
2610;SDS011;5612;51.134;17.058;2023-07-08T03:45:08;13.90;;;12.80;;
2610;SDS011;5612;51.134;17.058;2023-07-08T03:47:37;12.50;;;11.50;;
2610;SDS011;5612;51.134;17.058;2023-07-08T03:50:09;16.00;;;12.77;;
2610;SDS011;5612;51.134;17.058;2023-07-08T03:52:44;13.00;;;11.93;;
2610;SDS011;5612;51.134;17.058;2023-07-08T03:55:13;14.33;;;12.93;;
2610;SDS011;5612;51.134;17.058;2023-07-08T03:57:43;13.73;;;12.53;;
2610;SDS011;5612;51.134;17.058;2023-07-08T04:00:12;11.60;;;10.60;;
2610;SDS011;5612;51.134;17.058;2023-07-08T04:02:42;12.70;;;11.50;;
2610;SDS011;5612;51.134;17.058;2023-07-08T04:05:14;12.57;;;11.70;;
2610;SDS011;5612;51.134;17.058;2023-07-08T04:07:43;14.17;;;13.07;;
2610;SDS011;5612;51.134;17.058;2023-07-08T04:10:13;16.90;;;12.50;;
2610;SDS011;5612;51.134;17.058;2023-07-08T04:12:43;14.33;;;13.00;;
2610;SDS011;5612;51.134;17.058;2023-07-08T04:15:12;12.53;;;11.40;;
2610;SDS011;5612;51.134;17.058;2023-07-08T04:17:43;14.53;;;13.23;;
2610;SDS011;5612;51.134;17.058;2023-07-08T04:20:16;15.23;;;13.87;;
2610;SDS011;5612;51.134;17.058;2023-07-08T04:22:46;13.20;;;12.10;;
2610;SDS011;5612;51.134;17.058;2023-07-08T04:25:15;13.13;;;11.93;;
2610;SDS011;5612;51.134;17.058;2023-07-08T04:27:46;12.60;;;11.50;;
2610;SDS011;5612;51.134;17.058;2023-07-08T04:30:18;13.07;;;11.97;;
2610;SDS011;5612;51.134;17.058;2023-07-08T04:32:50;12.07;;;11.17;;
2610;SDS011;5612;51.134;17.058;2023-07-08T04:35:21;12.73;;;11.63;;
2610;SDS011;5612;51.134;17.058;2023-07-08T04:37:49;12.13;;;11.23;;
2610;SDS011;5612;51.134;17.058;2023-07-08T04:40:19;12.03;;;11.13;;
2610;SDS011;5612;51.134;17.058;2023-07-08T04:42:48;12.80;;;11.67;;
2610;SDS011;5612;51.134;17.058;2023-07-08T04:45:17;13.17;;;11.97;;
2610;SDS011;5612;51.134;17.058;2023-07-08T04:47:47;12.03;;;11.03;;
2610;SDS011;5612;51.134;17.058;2023-07-08T04:50:21;12.13;;;11.13;;
2610;SDS011;5612;51.134;17.058;2023-07-08T04:52:50;13.13;;;12.17;;
2610;SDS011;5612;51.134;17.058;2023-07-08T04:55:19;12.80;;;11.50;;
2610;SDS011;5612;51.134;17.058;2023-07-08T04:57:47;11.30;;;10.40;;
2610;SDS011;5612;51.134;17.058;2023-07-08T05:00:16;12.57;;;11.60;;
2610;SDS011;5612;51.134;17.058;2023-07-08T05:02:46;11.40;;;10.40;;
2610;SDS011;5612;51.134;17.058;2023-07-08T05:05:15;14.43;;;10.60;;
2610;SDS011;5612;51.134;17.058;2023-07-08T05:07:45;12.47;;;11.47;;
2610;SDS011;5612;51.134;17.058;2023-07-08T05:10:16;11.03;;;10.03;;
2610;SDS011;5612;51.134;17.058;2023-07-08T05:12:45;11.97;;;10.13;;
2610;SDS011;5612;51.134;17.058;2023-07-08T05:15:15;10.90;;;10.07;;
2610;SDS011;5612;51.134;17.058;2023-07-08T05:17:44;11.40;;;10.40;;
2610;SDS011;5612;51.134;17.058;2023-07-08T05:20:13;11.00;;;10.10;;
2610;SDS011;5612;51.134;17.058;2023-07-08T05:22:46;10.40;;;9.60;;
2610;SDS011;5612;51.134;17.058;2023-07-08T05:25:15;11.30;;;10.40;;
2610;SDS011;5612;51.134;17.058;2023-07-08T05:27:46;12.53;;;11.40;;
2610;SDS011;5612;51.134;17.058;2023-07-08T05:30:16;11.50;;;10.33;;
2610;SDS011;5612;51.134;17.058;2023-07-08T05:32:45;10.10;;;9.40;;
2610;SDS011;5612;51.134;17.058;2023-07-08T05:35:15;11.30;;;10.43;;
2610;SDS011;5612;51.134;17.058;2023-07-08T05:37:45;11.30;;;10.50;;
2610;SDS011;5612;51.134;17.058;2023-07-08T05:40:14;10.27;;;9.37;;
2610;SDS011;5612;51.134;17.058;2023-07-08T05:42:43;10.13;;;9.33;;
2610;SDS011;5612;51.134;17.058;2023-07-08T05:45:12;10.43;;;9.60;;
2610;SDS011;5612;51.134;17.058;2023-07-08T05:47:41;11.23;;;10.30;;
2610;SDS011;5612;51.134;17.058;2023-07-08T05:50:10;10.90;;;10.07;;
2610;SDS011;5612;51.134;17.058;2023-07-08T05:52:39;10.40;;;9.50;;
2610;SDS011;5612;51.134;17.058;2023-07-08T05:55:09;10.27;;;9.50;;
2610;SDS011;5612;51.134;17.058;2023-07-08T05:57:38;10.27;;;9.53;;
2610;SDS011;5612;51.134;17.058;2023-07-08T06:00:07;10.63;;;9.60;;
2610;SDS011;5612;51.134;17.058;2023-07-08T06:02:37;10.97;;;9.93;;
2610;SDS011;5612;51.134;17.058;2023-07-08T06:05:07;9.93;;;9.03;;
2610;SDS011;5612;51.134;17.058;2023-07-08T06:07:36;9.03;;;8.30;;
2610;SDS011;5612;51.134;17.058;2023-07-08T06:10:05;8.90;;;8.20;;
2610;SDS011;5612;51.134;17.058;2023-07-08T06:12:37;9.00;;;8.30;;
2610;SDS011;5612;51.134;17.058;2023-07-08T06:15:06;9.00;;;8.20;;
2610;SDS011;5612;51.134;17.058;2023-07-08T06:17:35;8.87;;;8.07;;
2610;SDS011;5612;51.134;17.058;2023-07-08T06:20:05;7.27;;;6.77;;
2610;SDS011;5612;51.134;17.058;2023-07-08T06:22:34;9.67;;;8.77;;
2610;SDS011;5612;51.134;17.058;2023-07-08T06:25:13;6.87;;;6.37;;
2610;SDS011;5612;51.134;17.058;2023-07-08T06:27:43;7.37;;;6.80;;
2610;SDS011;5612;51.134;17.058;2023-07-08T06:30:12;7.70;;;6.87;;
2610;SDS011;5612;51.134;17.058;2023-07-08T06:32:41;7.30;;;6.80;;
2610;SDS011;5612;51.134;17.058;2023-07-08T06:35:10;6.57;;;6.17;;
2610;SDS011;5612;51.134;17.058;2023-07-08T06:37:39;6.53;;;6.13;;
2610;SDS011;5612;51.134;17.058;2023-07-08T06:40:08;5.40;;;5.00;;
2610;SDS011;5612;51.134;17.058;2023-07-08T06:42:37;5.90;;;5.23;;
2610;SDS011;5612;51.134;17.058;2023-07-08T06:45:08;6.70;;;5.13;;
2610;SDS011;5612;51.134;17.058;2023-07-08T06:47:37;7.03;;;6.03;;
2610;SDS011;5612;51.134;17.058;2023-07-08T06:50:07;6.70;;;6.20;;
2610;SDS011;5612;51.134;17.058;2023-07-08T06:52:36;6.30;;;5.80;;
2610;SDS011;5612;51.134;17.058;2023-07-08T06:55:06;5.87;;;5.10;;
2610;SDS011;5612;51.134;17.058;2023-07-08T06:57:36;6.27;;;5.20;;
2610;SDS011;5612;51.134;17.058;2023-07-08T07:00:06;4.90;;;4.50;;
2610;SDS011;5612;51.134;17.058;2023-07-08T07:02:39;6.47;;;5.80;;
2610;SDS011;5612;51.134;17.058;2023-07-08T07:05:08;5.53;;;5.13;;
2610;SDS011;5612;51.134;17.058;2023-07-08T07:07:37;6.00;;;5.50;;
2610;SDS011;5612;51.134;17.058;2023-07-08T07:10:06;5.03;;;4.63;;
2610;SDS011;5612;51.134;17.058;2023-07-08T07:12:36;5.47;;;4.53;;
2610;SDS011;5612;51.134;17.058;2023-07-08T07:15:05;5.07;;;4.67;;
2610;SDS011;5612;51.134;17.058;2023-07-08T07:17:36;4.10;;;3.80;;
2610;SDS011;5612;51.134;17.058;2023-07-08T07:20:05;5.20;;;4.70;;
2610;SDS011;5612;51.134;17.058;2023-07-08T07:22:35;4.60;;;4.20;;
2610;SDS011;5612;51.134;17.058;2023-07-08T07:25:04;4.07;;;3.80;;
2610;SDS011;5612;51.134;17.058;2023-07-08T07:27:33;4.50;;;4.10;;
2610;SDS011;5612;51.134;17.058;2023-07-08T07:30:02;4.40;;;3.73;;
2610;SDS011;5612;51.134;17.058;2023-07-08T07:32:32;3.63;;;3.40;;
2610;SDS011;5612;51.134;17.058;2023-07-08T07:35:03;3.70;;;3.50;;
2610;SDS011;5612;51.134;17.058;2023-07-08T07:37:33;3.78;;;3.47;;
2610;SDS011;5612;51.134;17.058;2023-07-08T07:40:02;3.60;;;3.30;;
2610;SDS011;5612;51.134;17.058;2023-07-08T07:42:33;3.55;;;3.35;;
2610;SDS011;5612;51.134;17.058;2023-07-08T07:45:02;3.92;;;3.50;;
2610;SDS011;5612;51.134;17.058;2023-07-08T07:47:35;3.88;;;3.58;;
2610;SDS011;5612;51.134;17.058;2023-07-08T07:50:12;3.47;;;3.17;;
2610;SDS011;5612;51.134;17.058;2023-07-08T07:52:43;3.30;;;3.00;;
2610;SDS011;5612;51.134;17.058;2023-07-08T07:55:15;3.10;;;2.88;;
2610;SDS011;5612;51.134;17.058;2023-07-08T07:57:45;4.90;;;2.97;;
2610;SDS011;5612;51.134;17.058;2023-07-08T08:00:15;3.03;;;2.83;;
2610;SDS011;5612;51.134;17.058;2023-07-08T08:02:51;3.60;;;3.30;;
2610;SDS011;5612;51.134;17.058;2023-07-08T08:05:26;2.75;;;2.55;;
2610;SDS011;5612;51.134;17.058;2023-07-08T08:07:59;2.85;;;2.72;;
2610;SDS011;5612;51.134;17.058;2023-07-08T08:10:32;3.53;;;3.22;;
2610;SDS011;5612;51.134;17.058;2023-07-08T08:13:03;3.40;;;2.42;;
2610;SDS011;5612;51.134;17.058;2023-07-08T08:15:35;2.78;;;2.67;;
2610;SDS011;5612;51.134;17.058;2023-07-08T08:18:06;2.80;;;2.53;;
2610;SDS011;5612;51.134;17.058;2023-07-08T08:20:38;3.13;;;2.90;;
2610;SDS011;5612;51.134;17.058;2023-07-08T08:23:08;2.78;;;2.58;;
2610;SDS011;5612;51.134;17.058;2023-07-08T08:25:37;2.67;;;2.58;;
2610;SDS011;5612;51.134;17.058;2023-07-08T08:28:07;2.45;;;2.35;;
2610;SDS011;5612;51.134;17.058;2023-07-08T08:30:37;3.08;;;2.88;;
2610;SDS011;5612;51.134;17.058;2023-07-08T08:33:08;3.00;;;2.80;;
2610;SDS011;5612;51.134;17.058;2023-07-08T08:35:39;2.50;;;2.30;;
2610;SDS011;5612;51.134;17.058;2023-07-08T08:38:11;2.60;;;2.50;;
2610;SDS011;5612;51.134;17.058;2023-07-08T08:40:42;3.75;;;3.45;;
2610;SDS011;5612;51.134;17.058;2023-07-08T08:43:18;5.97;;;2.83;;
2610;SDS011;5612;51.134;17.058;2023-07-08T08:45:52;2.63;;;2.47;;
2610;SDS011;5612;51.134;17.058;2023-07-08T08:48:29;3.15;;;2.80;;
2610;SDS011;5612;51.134;17.058;2023-07-08T08:51:04;2.50;;;2.30;;
2610;SDS011;5612;51.134;17.058;2023-07-08T08:53:39;8.82;;;2.80;;
2610;SDS011;5612;51.134;17.058;2023-07-08T08:56:15;3.40;;;3.15;;
2610;SDS011;5612;51.134;17.058;2023-07-08T08:58:50;2.58;;;2.47;;
2610;SDS011;5612;51.134;17.058;2023-07-08T09:01:28;2.47;;;2.38;;
2610;SDS011;5612;51.134;17.058;2023-07-08T09:04:03;2.40;;;2.30;;
2610;SDS011;5612;51.134;17.058;2023-07-08T09:06:43;2.20;;;2.10;;
2610;SDS011;5612;51.134;17.058;2023-07-08T09:09:18;3.70;;;2.15;;
2610;SDS011;5612;51.134;17.058;2023-07-08T09:12:02;2.80;;;2.60;;
2610;SDS011;5612;51.134;17.058;2023-07-08T09:14:34;2.33;;;2.22;;
2610;SDS011;5612;51.134;17.058;2023-07-08T09:17:09;2.08;;;2.00;;
2610;SDS011;5612;51.134;17.058;2023-07-08T09:19:47;2.38;;;2.17;;
2610;SDS011;5612;51.134;17.058;2023-07-08T09:22:24;6.20;;;2.63;;
2610;SDS011;5612;51.134;17.058;2023-07-08T09:25:01;2.42;;;2.28;;
2610;SDS011;5612;51.134;17.058;2023-07-08T09:27:34;2.80;;;2.60;;
2610;SDS011;5612;51.134;17.058;2023-07-08T09:30:04;2.40;;;2.30;;
2610;SDS011;5612;51.134;17.058;2023-07-08T09:32:44;3.08;;;2.75;;
2610;SDS011;5612;51.134;17.058;2023-07-08T09:35:18;2.17;;;2.08;;
2610;SDS011;5612;51.134;17.058;2023-07-08T09:37:54;2.70;;;2.50;;
2610;SDS011;5612;51.134;17.058;2023-07-08T09:40:28;2.50;;;2.30;;
2610;SDS011;5612;51.134;17.058;2023-07-08T09:43:01;2.33;;;2.20;;
2610;SDS011;5612;51.134;17.058;2023-07-08T09:45:39;2.50;;;2.30;;
2610;SDS011;5612;51.134;17.058;2023-07-08T09:48:14;3.08;;;2.03;;
2610;SDS011;5612;51.134;17.058;2023-07-08T09:50:46;2.97;;;2.67;;
2610;SDS011;5612;51.134;17.058;2023-07-08T09:53:17;2.50;;;2.40;;
2610;SDS011;5612;51.134;17.058;2023-07-08T09:55:46;2.20;;;2.10;;
2610;SDS011;5612;51.134;17.058;2023-07-08T09:58:18;2.20;;;2.10;;
2610;SDS011;5612;51.134;17.058;2023-07-08T10:00:51;2.47;;;2.28;;
2610;SDS011;5612;51.134;17.058;2023-07-08T10:03:23;2.20;;;2.10;;
2610;SDS011;5612;51.134;17.058;2023-07-08T10:05:56;3.20;;;2.95;;
2610;SDS011;5612;51.134;17.058;2023-07-08T10:08:31;2.50;;;2.25;;
2610;SDS011;5612;51.134;17.058;2023-07-08T10:11:10;2.25;;;2.15;;
2610;SDS011;5612;51.134;17.058;2023-07-08T10:13:47;2.50;;;2.30;;
2610;SDS011;5612;51.134;17.058;2023-07-08T10:16:37;2.38;;;2.25;;
2610;SDS011;5612;51.134;17.058;2023-07-08T10:19:09;1.88;;;1.77;;
2610;SDS011;5612;51.134;17.058;2023-07-08T10:21:44;1.90;;;1.80;;
2610;SDS011;5612;51.134;17.058;2023-07-08T10:24:23;2.40;;;2.20;;
2610;SDS011;5612;51.134;17.058;2023-07-08T10:27:07;2.00;;;1.90;;
2610;SDS011;5612;51.134;17.058;2023-07-08T10:29:45;2.88;;;2.67;;
2610;SDS011;5612;51.134;17.058;2023-07-08T10:32:24;2.13;;;2.03;;
2610;SDS011;5612;51.134;17.058;2023-07-08T10:35:02;2.65;;;2.45;;
2610;SDS011;5612;51.134;17.058;2023-07-08T10:37:42;2.50;;;2.30;;
2610;SDS011;5612;51.134;17.058;2023-07-08T10:40:34;2.15;;;2.05;;
2610;SDS011;5612;51.134;17.058;2023-07-08T10:43:27;2.47;;;2.28;;
2610;SDS011;5612;51.134;17.058;2023-07-08T10:46:15;2.53;;;2.33;;
2610;SDS011;5612;51.134;17.058;2023-07-08T10:52:00;2.50;;;2.40;;
2610;SDS011;5612;51.134;17.058;2023-07-08T10:54:46;2.50;;;2.40;;
2610;SDS011;5612;51.134;17.058;2023-07-08T10:57:35;2.13;;;2.03;;
2610;SDS011;5612;51.134;17.058;2023-07-08T11:00:28;2.28;;;2.17;;
2610;SDS011;5612;51.134;17.058;2023-07-08T11:03:19;2.92;;;2.65;;
2610;SDS011;5612;51.134;17.058;2023-07-08T11:06:14;2.42;;;2.33;;
2610;SDS011;5612;51.134;17.058;2023-07-08T11:08:47;2.30;;;2.20;;
2610;SDS011;5612;51.134;17.058;2023-07-08T11:11:30;2.38;;;2.28;;
2610;SDS011;5612;51.134;17.058;2023-07-08T11:14:06;2.70;;;2.60;;
2610;SDS011;5612;51.134;17.058;2023-07-08T11:16:40;2.25;;;2.15;;
2610;SDS011;5612;51.134;17.058;2023-07-08T11:19:15;2.85;;;2.75;;
2610;SDS011;5612;51.134;17.058;2023-07-08T11:21:48;2.65;;;2.55;;
2610;SDS011;5612;51.134;17.058;2023-07-08T11:24:22;2.88;;;2.67;;
2610;SDS011;5612;51.134;17.058;2023-07-08T11:26:58;2.30;;;2.20;;
2610;SDS011;5612;51.134;17.058;2023-07-08T11:29:36;2.60;;;2.50;;
2610;SDS011;5612;51.134;17.058;2023-07-08T11:32:09;2.47;;;2.20;;
2610;SDS011;5612;51.134;17.058;2023-07-08T11:34:41;2.33;;;2.15;;
2610;SDS011;5612;51.134;17.058;2023-07-08T11:37:12;2.60;;;2.40;;
2610;SDS011;5612;51.134;17.058;2023-07-08T11:39:43;2.55;;;2.45;;
2610;SDS011;5612;51.134;17.058;2023-07-08T11:42:15;2.42;;;2.33;;
2610;SDS011;5612;51.134;17.058;2023-07-08T11:44:49;2.65;;;2.50;;
2610;SDS011;5612;51.134;17.058;2023-07-08T11:47:22;2.45;;;2.35;;
2610;SDS011;5612;51.134;17.058;2023-07-08T11:49:55;2.38;;;2.28;;
2610;SDS011;5612;51.134;17.058;2023-07-08T11:52:24;2.50;;;2.40;;
2610;SDS011;5612;51.134;17.058;2023-07-08T11:54:58;2.80;;;2.55;;
2610;SDS011;5612;51.134;17.058;2023-07-08T11:57:36;2.70;;;2.60;;
2610;SDS011;5612;51.134;17.058;2023-07-08T12:00:16;2.22;;;2.13;;
2610;SDS011;5612;51.134;17.058;2023-07-08T12:02:48;2.90;;;2.78;;
2610;SDS011;5612;51.134;17.058;2023-07-08T12:05:28;3.30;;;3.17;;
2610;SDS011;5612;51.134;17.058;2023-07-08T12:08:02;2.67;;;2.58;;
2610;SDS011;5612;51.134;17.058;2023-07-08T12:10:40;2.63;;;2.50;;
2610;SDS011;5612;51.134;17.058;2023-07-08T12:13:16;2.40;;;2.30;;
2610;SDS011;5612;51.134;17.058;2023-07-08T12:15:48;2.63;;;2.53;;
2610;SDS011;5612;51.134;17.058;2023-07-08T12:18:19;2.65;;;2.55;;
2610;SDS011;5612;51.134;17.058;2023-07-08T12:20:51;3.83;;;2.95;;
2610;SDS011;5612;51.134;17.058;2023-07-08T12:23:22;3.05;;;2.88;;
2610;SDS011;5612;51.134;17.058;2023-07-08T12:25:53;2.63;;;2.53;;
2610;SDS011;5612;51.134;17.058;2023-07-08T12:28:23;2.55;;;2.40;;
2610;SDS011;5612;51.134;17.058;2023-07-08T12:30:54;2.40;;;2.30;;
2610;SDS011;5612;51.134;17.058;2023-07-08T12:33:28;2.42;;;2.33;;
2610;SDS011;5612;51.134;17.058;2023-07-08T12:36:03;3.05;;;2.42;;
2610;SDS011;5612;51.134;17.058;2023-07-08T12:38:33;7.82;;;2.33;;
2610;SDS011;5612;51.134;17.058;2023-07-08T12:41:08;2.92;;;2.72;;
2610;SDS011;5612;51.134;17.058;2023-07-08T12:43:38;2.47;;;2.38;;
2610;SDS011;5612;51.134;17.058;2023-07-08T12:46:10;3.13;;;2.63;;
2610;SDS011;5612;51.134;17.058;2023-07-08T12:48:40;2.47;;;2.30;;
2610;SDS011;5612;51.134;17.058;2023-07-08T12:51:10;2.33;;;2.22;;
2610;SDS011;5612;51.134;17.058;2023-07-08T12:53:40;2.85;;;2.75;;
2610;SDS011;5612;51.134;17.058;2023-07-08T12:56:10;2.35;;;2.17;;
2610;SDS011;5612;51.134;17.058;2023-07-08T12:58:40;3.95;;;2.35;;
2610;SDS011;5612;51.134;17.058;2023-07-08T13:01:13;5.55;;;2.83;;
2610;SDS011;5612;51.134;17.058;2023-07-08T13:03:48;2.47;;;2.28;;
2610;SDS011;5612;51.134;17.058;2023-07-08T13:06:20;2.53;;;2.33;;
2610;SDS011;5612;51.134;17.058;2023-07-08T13:08:51;3.03;;;2.75;;
2610;SDS011;5612;51.134;17.058;2023-07-08T13:11:23;2.20;;;2.10;;
2610;SDS011;5612;51.134;17.058;2023-07-08T13:13:53;2.60;;;2.50;;
2610;SDS011;5612;51.134;17.058;2023-07-08T13:16:27;2.40;;;2.30;;
2610;SDS011;5612;51.134;17.058;2023-07-08T13:18:59;2.40;;;2.28;;
2610;SDS011;5612;51.134;17.058;2023-07-08T13:21:28;2.60;;;2.40;;
2610;SDS011;5612;51.134;17.058;2023-07-08T13:23:59;2.85;;;2.75;;
2610;SDS011;5612;51.134;17.058;2023-07-08T13:26:29;2.25;;;2.15;;
2610;SDS011;5612;51.134;17.058;2023-07-08T13:28:59;2.17;;;2.08;;
2610;SDS011;5612;51.134;17.058;2023-07-08T13:31:33;2.65;;;2.55;;
2610;SDS011;5612;51.134;17.058;2023-07-08T13:34:06;2.33;;;2.22;;
2610;SDS011;5612;51.134;17.058;2023-07-08T13:36:38;2.70;;;2.60;;
2610;SDS011;5612;51.134;17.058;2023-07-08T13:39:12;3.40;;;2.67;;
2610;SDS011;5612;51.134;17.058;2023-07-08T13:41:43;2.40;;;2.30;;
2610;SDS011;5612;51.134;17.058;2023-07-08T13:44:13;2.67;;;2.58;;
2610;SDS011;5612;51.134;17.058;2023-07-08T13:46:45;2.78;;;2.58;;
2610;SDS011;5612;51.134;17.058;2023-07-08T13:49:22;2.13;;;2.13;;
2610;SDS011;5612;51.134;17.058;2023-07-08T13:52:04;3.65;;;2.38;;
2610;SDS011;5612;51.134;17.058;2023-07-08T13:54:34;2.80;;;2.70;;
2610;SDS011;5612;51.134;17.058;2023-07-08T13:57:09;2.70;;;2.60;;
2610;SDS011;5612;51.134;17.058;2023-07-08T13:59:39;2.40;;;2.30;;
2610;SDS011;5612;51.134;17.058;2023-07-08T14:02:16;2.55;;;2.38;;
2610;SDS011;5612;51.134;17.058;2023-07-08T14:04:47;5.57;;;2.65;;
2610;SDS011;5612;51.134;17.058;2023-07-08T14:07:17;2.50;;;2.40;;
2610;SDS011;5612;51.134;17.058;2023-07-08T14:09:48;2.08;;;1.98;;
2610;SDS011;5612;51.134;17.058;2023-07-08T14:12:17;2.85;;;2.65;;
2610;SDS011;5612;51.134;17.058;2023-07-08T14:14:49;3.00;;;2.75;;
2610;SDS011;5612;51.134;17.058;2023-07-08T14:17:20;3.20;;;2.95;;
2610;SDS011;5612;51.134;17.058;2023-07-08T14:19:51;3.88;;;3.67;;
2610;SDS011;5612;51.134;17.058;2023-07-08T14:22:22;2.97;;;2.78;;
2610;SDS011;5612;51.134;17.058;2023-07-08T14:24:52;2.63;;;2.50;;
2610;SDS011;5612;51.134;17.058;2023-07-08T14:27:22;3.47;;;2.75;;
2610;SDS011;5612;51.134;17.058;2023-07-08T14:29:51;3.00;;;2.80;;
2610;SDS011;5612;51.134;17.058;2023-07-08T14:32:22;3.10;;;2.90;;
2610;SDS011;5612;51.134;17.058;2023-07-08T14:34:54;5.82;;;2.80;;
2610;SDS011;5612;51.134;17.058;2023-07-08T14:37:25;3.13;;;2.92;;
2610;SDS011;5612;51.134;17.058;2023-07-08T14:39:54;2.97;;;2.83;;
2610;SDS011;5612;51.134;17.058;2023-07-08T14:42:23;2.80;;;2.70;;
2610;SDS011;5612;51.134;17.058;2023-07-08T14:44:52;3.25;;;2.95;;
2610;SDS011;5612;51.134;17.058;2023-07-08T14:47:22;3.88;;;2.90;;
2610;SDS011;5612;51.134;17.058;2023-07-08T14:49:51;4.50;;;3.13;;
2610;SDS011;5612;51.134;17.058;2023-07-08T14:52:20;3.75;;;3.45;;
2610;SDS011;5612;51.134;17.058;2023-07-08T14:54:48;2.90;;;2.70;;
2610;SDS011;5612;51.134;17.058;2023-07-08T14:57:17;3.40;;;3.20;;
2610;SDS011;5612;51.134;17.058;2023-07-08T14:59:46;3.05;;;2.78;;
2610;SDS011;5612;51.134;17.058;2023-07-08T15:02:17;3.60;;;2.80;;
2610;SDS011;5612;51.134;17.058;2023-07-08T15:04:49;3.65;;;3.38;;
2610;SDS011;5612;51.134;17.058;2023-07-08T15:07:20;3.38;;;3.08;;
2610;SDS011;5612;51.134;17.058;2023-07-08T15:09:49;3.10;;;2.90;;
2610;SDS011;5612;51.134;17.058;2023-07-08T15:12:18;4.00;;;3.70;;
2610;SDS011;5612;51.134;17.058;2023-07-08T15:14:46;2.97;;;2.88;;
2610;SDS011;5612;51.134;17.058;2023-07-08T15:17:15;3.03;;;2.80;;
2610;SDS011;5612;51.134;17.058;2023-07-08T15:19:44;2.78;;;2.60;;
2610;SDS011;5612;51.134;17.058;2023-07-08T15:22:15;3.58;;;3.38;;
2610;SDS011;5612;51.134;17.058;2023-07-08T15:24:43;3.35;;;3.15;;
2610;SDS011;5612;51.134;17.058;2023-07-08T15:27:12;3.83;;;3.33;;